createdAt,value
2023-02-23T00:02:50.837Z,4.60
2023-02-23T00:07:53.223Z,3.80
2023-02-23T00:12:55.154Z,3.88
2023-02-23T00:17:58.267Z,4.38
2023-02-23T00:23:00.287Z,5.05
2023-02-23T00:28:02.272Z,5.07
2023-02-23T00:33:04.640Z,4.28
2023-02-23T00:38:06.638Z,5.97
2023-02-23T00:43:08.692Z,5.35
2023-02-23T00:48:11.050Z,5.82
2023-02-23T00:53:13.075Z,5.82
2023-02-23T00:58:15.071Z,5.20
2023-02-23T01:03:17.025Z,7.63
2023-02-23T01:08:19.395Z,6.20
2023-02-23T01:13:22.862Z,5.70
2023-02-23T01:18:24.911Z,3.10
2023-02-23T01:23:26.999Z,6.15
2023-02-23T01:28:29.012Z,7.68
2023-02-23T01:33:31.476Z,6.78
2023-02-23T01:38:33.493Z,6.40
2023-02-23T01:43:37.368Z,6.00
2023-02-23T01:48:40.804Z,5.65
2023-02-23T01:53:47.287Z,5.07
2023-02-23T01:58:54.992Z,5.47
2023-02-23T02:04:00.596Z,7.13
2023-02-23T02:09:08.167Z,5.57
2023-02-23T02:14:14.344Z,6.97
2023-02-23T02:19:31.507Z,7.07
2023-02-23T02:25:06.943Z,5.57
2023-02-23T02:30:45.915Z,5.47
2023-02-23T02:36:22.113Z,6.95
2023-02-23T02:41:43.033Z,6.30
2023-02-23T02:46:50.295Z,4.15
2023-02-23T02:52:09.056Z,2.95
2023-02-23T02:57:13.345Z,4.15
2023-02-23T03:02:41.966Z,3.70
2023-02-23T03:08:36.515Z,4.30
2023-02-23T03:14:18.281Z,5.95
2023-02-23T03:19:50.321Z,6.00
2023-02-23T03:25:19.516Z,7.50
2023-02-23T03:30:49.560Z,3.20
2023-02-23T03:36:14.734Z,7.18
2023-02-23T03:41:39.516Z,5.07
2023-02-23T03:47:02.319Z,4.80
2023-02-23T03:52:28.889Z,4.82
2023-02-23T03:57:52.506Z,5.03
2023-02-23T04:03:14.791Z,6.35
2023-02-23T04:08:38.495Z,5.00
2023-02-23T04:13:43.708Z,6.00
2023-02-23T04:18:45.765Z,5.57
2023-02-23T04:23:48.104Z,5.60
2023-02-23T04:28:50.054Z,5.55
2023-02-23T04:33:52.016Z,7.10
2023-02-23T04:38:54.070Z,7.63
2023-02-23T04:43:56.006Z,6.88
2023-02-23T04:48:58.054Z,5.57
2023-02-23T04:54:00.506Z,5.40
2023-02-23T04:59:02.885Z,5.82
2023-02-23T05:04:05.053Z,7.10
2023-02-23T05:09:07.279Z,7.18
2023-02-23T05:14:10.491Z,4.15
2023-02-23T05:19:12.587Z,6.38
2023-02-23T05:24:14.601Z,4.65
2023-02-23T05:29:16.662Z,7.55
2023-02-23T05:34:18.713Z,4.90
2023-02-23T05:39:21.586Z,4.00
2023-02-23T05:44:24.614Z,5.38
2023-02-23T05:49:26.701Z,2.97
2023-02-23T05:54:28.689Z,6.07
2023-02-23T05:59:30.714Z,9.07
2023-02-23T06:04:33.349Z,5.70
2023-02-23T06:09:35.654Z,5.10
2023-02-23T06:14:37.755Z,8.07
2023-02-23T06:19:39.870Z,5.63
2023-02-23T06:24:42.024Z,7.40
2023-02-23T06:29:44.113Z,9.20
2023-02-23T06:34:46.221Z,8.38
2023-02-23T06:39:49.102Z,6.25
2023-02-23T06:44:51.212Z,6.90
2023-02-23T06:49:53.263Z,10.45
2023-02-23T06:54:55.272Z,7.85
2023-02-23T06:59:57.239Z,8.77
2023-02-23T07:04:59.349Z,8.35
2023-02-23T07:10:01.401Z,8.48
2023-02-23T07:15:03.552Z,6.50
2023-02-23T07:20:06.160Z,7.30
2023-02-23T07:25:09.395Z,6.88
2023-02-23T07:30:12.242Z,9.80
2023-02-23T07:35:14.309Z,9.75
2023-02-23T07:40:16.677Z,7.93
2023-02-23T07:45:18.796Z,9.23
2023-02-23T07:50:21.009Z,12.82
2023-02-23T07:55:23.111Z,7.95
2023-02-23T08:00:25.716Z,3.90
2023-02-23T08:05:28.509Z,10.07
2023-02-23T08:10:30.764Z,11.93
2023-02-23T08:15:33.153Z,14.02
2023-02-23T08:20:35.150Z,9.45
2023-02-23T08:25:37.122Z,7.50
2023-02-23T08:30:41.105Z,9.30
2023-02-23T08:35:43.269Z,3.40
2023-02-23T08:40:45.406Z,6.40
2023-02-23T08:45:48.496Z,8.35
2023-02-23T08:50:51.466Z,7.50
2023-02-23T08:56:02.034Z,6.18
2023-02-23T09:01:04.912Z,6.30
2023-02-23T09:06:11.541Z,7.63
2023-02-23T09:11:13.548Z,7.75
2023-02-23T09:16:16.404Z,8.25
2023-02-23T09:21:22.584Z,9.25
2023-02-23T09:26:26.573Z,6.35
2023-02-23T09:31:29.276Z,8.40
2023-02-23T09:36:32.140Z,6.10
2023-02-23T09:41:43.365Z,8.82
2023-02-23T09:47:21.509Z,6.90
2023-02-23T09:52:28.526Z,16.40
2023-02-23T09:57:39.129Z,9.25
2023-02-23T10:03:00.896Z,12.52
2023-02-23T10:08:07.882Z,13.30
2023-02-23T10:13:49.943Z,6.50
2023-02-23T10:18:52.019Z,7.25
2023-02-23T10:24:30.321Z,5.68
2023-02-23T10:29:41.625Z,7.80
2023-02-23T10:34:46.746Z,9.43
2023-02-23T10:39:52.436Z,9.43
2023-02-23T10:44:55.276Z,8.45
2023-02-23T10:49:58.878Z,7.80
2023-02-23T10:55:08.256Z,7.35
2023-02-23T11:00:33.259Z,11.63
2023-02-23T11:05:47.731Z,8.70
2023-02-23T11:11:05.535Z,5.30
2023-02-23T11:16:14.686Z,6.63
2023-02-23T11:21:30.590Z,9.00
2023-02-23T11:26:42.707Z,8.35
2023-02-23T11:31:52.907Z,8.82
2023-02-23T11:37:01.770Z,9.05
2023-02-23T11:42:18.178Z,6.72
2023-02-23T11:47:23.374Z,8.48
2023-02-23T11:52:28.289Z,7.97
2023-02-23T11:57:33.925Z,8.80
2023-02-23T12:02:50.298Z,12.15
2023-02-23T12:08:15.184Z,10.63
2023-02-23T12:13:36.878Z,10.20
2023-02-23T12:19:08.603Z,10.32
2023-02-23T12:24:37.469Z,7.70
2023-02-23T12:29:55.592Z,8.25
2023-02-23T12:35:04.092Z,8.80
2023-02-23T12:40:38.446Z,9.55
2023-02-23T12:45:53.160Z,10.32
2023-02-23T12:50:58.740Z,12.43
2023-02-23T12:56:19.675Z,9.70
2023-02-23T13:01:32.118Z,10.80
2023-02-23T13:06:39.400Z,8.60
2023-02-23T13:11:59.467Z,10.10
2023-02-23T13:17:31.665Z,10.73
2023-02-23T13:22:44.284Z,7.97
2023-02-23T13:27:52.227Z,7.43
2023-02-23T13:32:55.811Z,10.73
2023-02-23T13:38:30.503Z,11.73
2023-02-23T13:43:47.769Z,10.25
2023-02-23T13:49:41.961Z,12.98
2023-02-23T13:54:57.671Z,16.20
2023-02-23T14:00:00.463Z,11.32
2023-02-23T14:05:25.126Z,15.13
2023-02-23T14:10:38.958Z,5.80
2023-02-23T14:15:50.147Z,10.77
2023-02-23T14:20:58.321Z,13.35
2023-02-23T14:26:30.539Z,14.50
2023-02-23T14:31:34.454Z,8.80
2023-02-23T14:36:44.918Z,15.07
2023-02-23T14:41:56.550Z,12.02
2023-02-23T14:47:09.961Z,15.65
2023-02-23T14:52:24.917Z,13.85
2023-02-23T14:57:27.145Z,11.35
2023-02-23T15:02:31.390Z,6.95
2023-02-23T15:07:40.724Z,13.27
2023-02-23T15:12:43.768Z,15.02
2023-02-23T15:17:48.883Z,12.40
2023-02-23T15:22:55.527Z,13.68
2023-02-23T15:27:58.061Z,10.50
2023-02-23T15:38:13.973Z,8.43
2023-02-23T15:43:20.557Z,11.38
2023-02-23T15:48:29.370Z,12.48
2023-02-23T15:53:41.915Z,8.52
2023-02-23T15:58:56.548Z,11.27
2023-02-23T16:04:14.953Z,11.80
2023-02-23T16:09:24.467Z,10.93
2023-02-23T16:14:33.027Z,10.80
2023-02-23T16:19:41.958Z,11.50
2023-02-23T16:24:44.840Z,9.60
2023-02-23T16:29:47.635Z,10.32
2023-02-23T16:35:02.172Z,12.82
2023-02-23T16:40:05.532Z,14.57
2023-02-23T16:45:13.853Z,18.80
2023-02-23T16:50:25.385Z,10.27
2023-02-23T16:55:29.700Z,12.73
2023-02-23T17:00:34.215Z,16.92
2023-02-23T17:05:37.082Z,14.60
2023-02-23T17:10:41.828Z,15.40
2023-02-23T17:15:48.687Z,11.23
2023-02-23T17:20:53.389Z,14.02
2023-02-23T17:26:02.908Z,10.75
2023-02-23T17:31:08.476Z,16.67
2023-02-23T17:36:16.301Z,7.88
2023-02-23T17:41:21.372Z,13.45
2023-02-23T17:46:26.978Z,14.57
2023-02-23T17:51:33.366Z,13.43
2023-02-23T17:56:38.442Z,11.00
2023-02-23T18:01:41.627Z,16.25
2023-02-23T18:06:47.606Z,18.45
2023-02-23T18:11:50.788Z,17.33
2023-02-23T18:16:54.456Z,16.15
2023-02-23T18:21:58.506Z,15.43
2023-02-23T18:27:07.487Z,23.20
2023-02-23T18:32:15.016Z,17.02
2023-02-23T18:37:26.162Z,10.32
2023-02-23T18:42:32.586Z,15.35
2023-02-23T18:47:36.047Z,19.58
2023-02-23T18:52:41.503Z,15.60
2023-02-23T18:57:46.208Z,14.15
2023-02-23T19:02:49.905Z,11.32
2023-02-23T19:07:56.314Z,9.68
2023-02-23T19:13:01.085Z,16.55
2023-02-23T19:18:06.995Z,14.57
2023-02-23T19:23:13.801Z,12.63
2023-02-23T19:28:18.806Z,13.10
2023-02-23T19:33:23.769Z,14.52
2023-02-23T19:38:31.886Z,16.17
2023-02-23T19:43:35.378Z,21.70
2023-02-23T19:48:41.038Z,19.05
2023-02-23T19:53:44.922Z,10.63
2023-02-23T19:58:50.329Z,13.00
2023-02-23T20:03:58.971Z,17.13
2023-02-23T20:09:05.820Z,17.17
2023-02-23T20:14:10.815Z,12.35
2023-02-23T20:19:15.853Z,11.60
2023-02-23T20:24:21.841Z,12.93
2023-02-23T20:29:36.959Z,18.00
2023-02-23T20:34:40.385Z,10.95
2023-02-23T20:39:44.036Z,10.57
2023-02-23T20:44:48.983Z,18.73
2023-02-23T20:49:53.776Z,18.35
2023-02-23T20:54:56.601Z,19.65
2023-02-23T20:59:59.757Z,15.43
2023-02-23T21:05:03.268Z,20.60
2023-02-23T21:10:08.167Z,18.15
2023-02-23T21:15:15.774Z,32.83
2023-02-23T21:20:20.841Z,24.90
2023-02-23T21:25:28.149Z,22.05
2023-02-23T21:30:31.533Z,21.92
2023-02-23T21:35:36.440Z,22.00
2023-02-23T21:40:42.595Z,18.92
2023-02-23T21:45:48.032Z,21.55
2023-02-23T21:50:50.591Z,21.10
2023-02-23T22:00:55.084Z,12.63
2023-02-23T22:06:01.875Z,11.82
2023-02-23T22:11:09.172Z,13.15
2023-02-23T22:16:12.022Z,15.65
2023-02-23T22:21:14.306Z,11.45
2023-02-23T22:26:18.125Z,12.10
2023-02-23T22:31:20.559Z,7.35
2023-02-23T22:36:23.172Z,5.88
2023-02-23T22:41:25.188Z,7.60
2023-02-23T22:46:27.272Z,16.58
2023-02-23T22:51:29.414Z,15.68
2023-02-23T22:56:31.703Z,17.05
2023-02-23T23:01:34.609Z,11.13
2023-02-23T23:06:38.193Z,18.38
2023-02-23T23:11:44.734Z,19.83
2023-02-23T23:16:53.480Z,24.15
2023-02-23T23:21:56.231Z,23.20
2023-02-23T23:27:01.504Z,16.45
2023-02-23T23:32:07.085Z,18.00
2023-02-23T23:37:09.236Z,17.73
2023-02-23T23:42:12.351Z,17.95
2023-02-23T23:47:15.396Z,18.20
2023-02-23T23:52:18.120Z,19.23
2023-02-23T23:57:20.159Z,17.50
